createdAt,value
2022-10-22T00:01:20.260Z,19.93
2022-10-22T00:03:48.984Z,18.87
2022-10-22T00:06:17.100Z,21.37
2022-10-22T00:08:45.251Z,20.17
2022-10-22T00:11:14.817Z,21.03
2022-10-22T00:13:43.507Z,20.70
2022-10-22T00:16:13.708Z,21.87
2022-10-22T00:18:41.952Z,20.90
2022-10-22T00:21:10.605Z,20.37
2022-10-22T00:23:41.624Z,20.93
2022-10-22T00:26:09.786Z,21.00
2022-10-22T00:28:38.006Z,21.47
2022-10-22T00:31:07.190Z,21.33
2022-10-22T00:33:36.669Z,20.93
2022-10-22T00:36:04.990Z,22.93
2022-10-22T00:38:33.133Z,21.40
2022-10-22T00:43:30.183Z,21.80
2022-10-22T00:45:58.322Z,20.67
2022-10-22T00:48:29.520Z,20.03
2022-10-22T00:51:02.820Z,20.47
2022-10-22T00:53:36.472Z,21.03
2022-10-22T00:56:04.953Z,21.17
2022-10-22T00:58:37.888Z,19.30
2022-10-22T01:01:07.651Z,19.07
2022-10-22T01:03:35.852Z,19.83
2022-10-22T01:06:07.079Z,19.47
2022-10-22T01:08:44.885Z,19.60
2022-10-22T01:11:23.366Z,19.57
2022-10-22T01:13:59.258Z,19.30
2022-10-22T01:16:36.005Z,20.43
2022-10-22T01:19:26.849Z,20.27
2022-10-22T01:22:01.592Z,19.73
2022-10-22T01:24:43.245Z,19.87
2022-10-22T01:27:22.845Z,21.23
2022-10-22T01:29:59.364Z,19.90
2022-10-22T01:32:30.608Z,21.97
2022-10-22T01:35:03.841Z,22.10
2022-10-22T01:37:35.177Z,20.97
2022-10-22T01:40:03.983Z,20.87
2022-10-22T01:42:32.072Z,20.87
2022-10-22T01:45:01.532Z,20.10
2022-10-22T01:47:42.048Z,20.70
2022-10-22T01:50:31.795Z,19.93
2022-10-22T01:53:15.610Z,20.23
2022-10-22T01:55:53.538Z,20.60
2022-10-22T01:58:35.382Z,20.83
2022-10-22T02:01:15.274Z,19.27
2022-10-22T02:03:49.431Z,19.80
2022-10-22T02:06:21.937Z,20.23
2022-10-22T02:08:52.071Z,19.83
2022-10-22T02:11:20.332Z,20.97
2022-10-22T02:13:52.486Z,20.87
2022-10-22T02:16:28.807Z,20.37
2022-10-22T02:19:00.050Z,18.40
2022-10-22T02:21:29.141Z,19.07
2022-10-22T02:24:01.225Z,21.13
2022-10-22T02:26:36.008Z,19.10
2022-10-22T02:29:10.094Z,19.63
2022-10-22T02:31:51.922Z,20.10
2022-10-22T02:34:31.811Z,19.20
2022-10-22T02:37:01.470Z,20.20
2022-10-22T02:39:30.880Z,19.97
2022-10-22T02:41:59.623Z,23.27
2022-10-22T02:44:27.754Z,22.13
2022-10-22T02:46:57.327Z,20.40
2022-10-22T02:49:25.427Z,22.30
2022-10-22T02:51:53.682Z,22.67
2022-10-22T02:54:21.753Z,21.77
2022-10-22T02:56:49.800Z,22.20
2022-10-22T02:59:17.813Z,22.57
2022-10-22T03:01:47.092Z,22.27
2022-10-22T03:04:17.286Z,21.53
2022-10-22T03:06:45.410Z,21.07
2022-10-22T03:09:13.480Z,22.03
2022-10-22T03:11:41.591Z,21.07
2022-10-22T03:14:09.785Z,22.17
2022-10-22T03:16:37.830Z,21.73
2022-10-22T03:19:06.811Z,21.00
2022-10-22T03:21:40.297Z,21.03
2022-10-22T03:24:18.884Z,21.13
2022-10-22T03:26:48.484Z,21.53
2022-10-22T03:29:17.741Z,21.30
2022-10-22T03:31:45.794Z,21.93
2022-10-22T03:34:14.931Z,23.10
2022-10-22T03:36:44.845Z,23.53
2022-10-22T03:39:15.211Z,21.50
2022-10-22T03:41:44.483Z,21.60
2022-10-22T03:44:13.400Z,21.10
2022-10-22T03:46:41.767Z,21.60
2022-10-22T03:49:09.868Z,20.50
2022-10-22T03:51:38.037Z,22.40
2022-10-22T03:54:07.837Z,20.73
2022-10-22T03:56:36.041Z,22.37
2022-10-22T03:59:04.694Z,21.83
2022-10-22T04:01:33.250Z,21.27
2022-10-22T04:04:01.393Z,21.70
2022-10-22T04:06:30.695Z,22.20
2022-10-22T04:09:01.321Z,22.83
2022-10-22T04:11:30.991Z,21.37
2022-10-22T04:13:59.066Z,21.33
2022-10-22T04:16:31.038Z,22.17
2022-10-22T04:18:59.434Z,20.97
2022-10-22T04:21:27.596Z,21.33
2022-10-22T04:23:55.805Z,20.53
2022-10-22T04:26:23.823Z,21.83
2022-10-22T04:28:54.005Z,22.47
2022-10-22T04:31:24.880Z,20.73
2022-10-22T04:33:56.261Z,21.97
2022-10-22T04:36:25.299Z,21.50
2022-10-22T04:38:56.665Z,20.50
2022-10-22T04:41:27.098Z,21.17
2022-10-22T04:43:57.968Z,20.17
2022-10-22T04:46:27.982Z,20.33
2022-10-22T04:48:56.435Z,20.13
2022-10-22T04:51:26.523Z,19.07
2022-10-22T04:53:55.088Z,18.90
2022-10-22T04:56:26.743Z,20.23
2022-10-22T04:58:59.077Z,19.90
2022-10-22T05:01:29.649Z,18.30
2022-10-22T05:04:00.787Z,18.47
2022-10-22T05:06:31.560Z,20.20
2022-10-22T05:09:01.230Z,18.30
2022-10-22T05:11:33.660Z,19.00
2022-10-22T05:14:05.133Z,19.57
2022-10-22T05:16:34.745Z,20.07
2022-10-22T05:19:05.008Z,18.80
2022-10-22T05:21:33.515Z,18.70
2022-10-22T05:24:02.466Z,18.10
2022-10-22T05:26:31.054Z,16.87
2022-10-22T05:28:59.147Z,18.63
2022-10-22T05:31:30.941Z,17.97
2022-10-22T05:33:59.274Z,17.63
2022-10-22T05:36:27.507Z,17.33
2022-10-22T05:38:55.799Z,17.63
2022-10-22T05:41:25.820Z,18.10
2022-10-22T05:43:56.861Z,18.27
2022-10-22T05:46:29.772Z,17.67
2022-10-22T05:48:59.673Z,17.87
2022-10-22T05:51:29.706Z,18.37
2022-10-22T05:54:00.690Z,17.20
2022-10-22T05:56:32.017Z,18.20
2022-10-22T06:01:36.553Z,17.70
2022-10-22T06:04:06.742Z,18.33
2022-10-22T06:06:36.864Z,18.27
2022-10-22T06:09:08.147Z,17.20
2022-10-22T06:11:36.562Z,17.77
2022-10-22T06:14:05.691Z,18.00
2022-10-22T06:16:35.617Z,17.37
2022-10-22T06:19:04.161Z,17.20
2022-10-22T06:21:33.074Z,18.17
2022-10-22T06:24:02.478Z,17.20
2022-10-22T06:26:31.884Z,17.40
2022-10-22T06:29:00.356Z,15.97
2022-10-22T06:31:28.990Z,15.50
2022-10-22T06:33:59.182Z,17.50
2022-10-22T06:36:27.331Z,15.87
2022-10-22T06:38:57.047Z,16.57
2022-10-22T06:41:28.633Z,16.37
2022-10-22T06:43:58.830Z,18.23
2022-10-22T06:46:27.638Z,16.77
2022-10-22T06:48:59.666Z,17.23
2022-10-22T06:51:29.360Z,16.77
2022-10-22T06:53:59.345Z,17.10
2022-10-22T06:56:28.962Z,16.97
2022-10-22T06:58:58.949Z,16.00
2022-10-22T07:01:29.728Z,14.60
2022-10-22T07:03:58.864Z,14.33
2022-10-22T07:06:30.725Z,13.77
2022-10-22T07:09:01.613Z,13.77
2022-10-22T07:11:40.251Z,15.10
2022-10-22T07:14:08.896Z,13.27
2022-10-22T07:16:37.905Z,13.67
2022-10-22T07:19:07.687Z,15.07
2022-10-22T07:21:37.373Z,14.80
2022-10-22T07:24:08.119Z,15.40
2022-10-22T07:26:37.495Z,14.90
2022-10-22T07:29:06.134Z,13.97
2022-10-22T07:31:34.334Z,12.77
2022-10-22T07:34:02.579Z,13.63
2022-10-22T07:36:30.771Z,17.90
2022-10-22T07:39:01.914Z,13.03
2022-10-22T07:41:31.359Z,12.67
2022-10-22T07:44:00.110Z,13.43
2022-10-22T07:46:28.348Z,12.10
2022-10-22T07:48:57.168Z,12.53
2022-10-22T07:51:25.285Z,13.23
2022-10-22T07:53:53.460Z,13.20
2022-10-22T07:56:23.576Z,12.80
2022-10-22T07:58:51.781Z,11.77
2022-10-22T08:01:20.151Z,11.90
2022-10-22T08:03:52.669Z,11.47
2022-10-22T08:06:22.695Z,11.47
2022-10-22T08:08:51.339Z,11.13
2022-10-22T08:11:19.422Z,11.10
2022-10-22T08:13:48.939Z,11.20
2022-10-22T08:16:22.970Z,10.50
2022-10-22T08:18:58.162Z,11.60
2022-10-22T08:21:36.284Z,9.07
2022-10-22T08:24:16.019Z,9.40
2022-10-22T08:26:46.148Z,8.70
2022-10-22T08:29:28.685Z,8.30
2022-10-22T08:31:59.926Z,9.23
2022-10-22T08:34:52.781Z,8.60
2022-10-22T08:37:30.021Z,8.73
2022-10-22T08:40:07.189Z,9.13
2022-10-22T08:43:03.508Z,9.33
2022-10-22T08:46:34.490Z,8.13
2022-10-22T08:49:06.604Z,9.57
2022-10-22T08:51:40.571Z,8.83
2022-10-22T08:54:20.506Z,9.37
2022-10-22T08:57:00.077Z,9.53
2022-10-22T08:59:36.442Z,9.23
2022-10-22T09:02:18.320Z,9.50
2022-10-22T09:04:58.188Z,9.50
2022-10-22T09:07:26.625Z,8.70
2022-10-22T09:09:57.926Z,8.87
2022-10-22T09:12:28.945Z,8.90
2022-10-22T09:14:57.560Z,9.60
2022-10-22T09:17:34.022Z,9.30
2022-10-22T09:20:10.834Z,8.33
2022-10-22T09:22:46.902Z,9.00
2022-10-22T09:25:27.496Z,8.50
2022-10-22T09:27:58.698Z,8.87
2022-10-22T09:30:29.854Z,9.90
2022-10-22T09:33:03.546Z,9.03
2022-10-22T09:35:35.525Z,8.50
2022-10-22T09:38:09.702Z,9.47
2022-10-22T09:40:45.471Z,9.60
2022-10-22T09:43:15.957Z,9.25
2022-10-22T09:45:45.080Z,9.35
2022-10-22T09:48:21.058Z,9.20
2022-10-22T09:50:56.348Z,9.57
2022-10-22T09:53:28.421Z,9.60
2022-10-22T09:55:59.414Z,10.35
2022-10-22T09:58:30.241Z,9.02
2022-10-22T10:01:00.600Z,8.60
2022-10-22T10:03:32.207Z,9.50
2022-10-22T10:06:05.904Z,9.33
2022-10-22T10:08:34.914Z,10.50
2022-10-22T10:11:10.131Z,10.13
2022-10-22T10:13:47.919Z,11.57
2022-10-22T10:16:30.416Z,10.10
2022-10-22T10:19:11.216Z,11.63
2022-10-22T10:21:52.387Z,11.33
2022-10-22T10:24:29.870Z,11.93
2022-10-22T10:27:03.931Z,10.70
2022-10-22T10:29:47.343Z,11.47
2022-10-22T10:32:31.323Z,10.67
2022-10-22T10:35:13.451Z,10.55
2022-10-22T10:37:48.551Z,10.13
2022-10-22T10:40:28.245Z,10.13
2022-10-22T10:43:02.136Z,9.88
2022-10-22T10:45:39.164Z,9.18
2022-10-22T10:48:23.690Z,8.88
2022-10-22T10:51:01.392Z,9.60
2022-10-22T10:53:46.170Z,9.07
2022-10-22T10:56:34.491Z,8.57
2022-10-22T10:59:17.763Z,8.95
2022-10-22T11:01:57.939Z,8.70
2022-10-22T11:04:45.501Z,9.05
2022-10-22T11:07:30.392Z,8.60
2022-10-22T11:10:11.164Z,8.32
2022-10-22T11:12:48.855Z,8.60
2022-10-22T11:15:25.182Z,8.48
2022-10-22T11:17:58.005Z,8.32
2022-10-22T11:20:34.272Z,9.13
2022-10-22T11:23:23.303Z,8.63
2022-10-22T11:25:52.895Z,9.05
2022-10-22T11:28:25.043Z,8.57
2022-10-22T11:30:59.468Z,7.97
2022-10-22T11:33:41.109Z,7.63
2022-10-22T11:36:11.548Z,7.05
2022-10-22T11:38:49.160Z,7.95
2022-10-22T11:41:23.296Z,7.60
2022-10-22T11:44:07.422Z,7.30
2022-10-22T11:46:47.756Z,7.13
2022-10-22T11:49:24.908Z,7.70
2022-10-22T11:52:23.054Z,7.18
2022-10-22T11:54:57.292Z,7.00
2022-10-22T11:57:37.536Z,7.57
2022-10-22T12:00:13.958Z,7.72
2022-10-22T12:02:49.402Z,7.43
2022-10-22T12:05:46.085Z,8.13
2022-10-22T12:08:26.932Z,7.50
2022-10-22T12:11:40.657Z,8.02
2022-10-22T12:14:29.928Z,7.00
2022-10-22T12:17:00.463Z,7.43
2022-10-22T12:19:32.430Z,7.95
2022-10-22T12:22:07.688Z,7.05
2022-10-22T12:24:45.192Z,7.28
2022-10-22T12:27:27.048Z,7.30
2022-10-22T12:30:01.328Z,6.60
2022-10-22T12:32:35.475Z,7.70
2022-10-22T12:35:07.094Z,7.45
2022-10-22T12:37:37.609Z,7.30
2022-10-22T12:40:18.278Z,8.05
2022-10-22T12:42:51.343Z,7.32
2022-10-22T12:45:21.654Z,8.90
2022-10-22T12:47:51.592Z,9.85
2022-10-22T12:50:22.307Z,8.70
2022-10-22T12:52:50.978Z,8.05
2022-10-22T12:55:21.778Z,8.00
2022-10-22T12:57:50.635Z,7.32
2022-10-22T13:00:29.506Z,8.65
2022-10-22T13:03:01.621Z,8.48
2022-10-22T13:05:38.949Z,8.93
2022-10-22T13:08:11.533Z,8.45
2022-10-22T13:10:41.492Z,8.48
2022-10-22T13:13:35.253Z,8.45
2022-10-22T13:16:21.864Z,8.70
2022-10-22T13:18:50.021Z,8.13
2022-10-22T13:21:27.708Z,8.07
2022-10-22T13:23:58.268Z,8.70
2022-10-22T13:26:32.559Z,9.15
2022-10-22T13:29:04.035Z,8.23
2022-10-22T13:31:37.921Z,8.32
2022-10-22T13:34:11.841Z,8.70
2022-10-22T13:36:41.407Z,7.93
2022-10-22T13:39:17.177Z,9.68
2022-10-22T13:41:45.310Z,8.13
2022-10-22T13:44:14.738Z,8.63
2022-10-22T13:46:43.730Z,9.60
2022-10-22T13:49:16.658Z,9.38
2022-10-22T13:51:45.001Z,10.05
2022-10-22T13:54:18.315Z,8.90
2022-10-22T13:56:48.808Z,9.20
2022-10-22T13:59:21.308Z,8.90
2022-10-22T14:01:52.213Z,9.52
2022-10-22T14:04:20.293Z,10.48
2022-10-22T14:06:48.376Z,10.68
2022-10-22T14:09:17.423Z,10.18
2022-10-22T14:11:45.522Z,7.47
2022-10-22T14:14:17.193Z,8.07
2022-10-22T14:16:48.290Z,8.50
2022-10-22T14:19:19.142Z,8.25
2022-10-22T14:21:49.985Z,7.63
2022-10-22T14:24:19.679Z,8.30
2022-10-22T14:26:47.910Z,7.65
2022-10-22T14:29:16.049Z,8.07
2022-10-22T14:31:46.353Z,8.82
2022-10-22T14:34:17.227Z,8.10
2022-10-22T14:36:46.087Z,8.68
2022-10-22T14:39:15.127Z,9.27
2022-10-22T14:41:43.971Z,11.40
2022-10-22T14:44:14.513Z,9.00
2022-10-22T14:46:44.620Z,8.90
2022-10-22T14:49:14.370Z,14.38
2022-10-22T14:51:45.419Z,8.20
2022-10-22T14:54:13.630Z,9.23
2022-10-22T14:56:41.656Z,11.55
2022-10-22T14:59:09.946Z,10.43
2022-10-22T15:01:42.959Z,15.23
2022-10-22T15:04:11.350Z,22.70
2022-10-22T15:06:40.839Z,11.20
2022-10-22T15:09:09.261Z,14.48
2022-10-22T15:11:37.561Z,10.52
2022-10-22T15:14:05.787Z,9.13
2022-10-22T15:16:33.874Z,10.05
2022-10-22T15:19:02.211Z,9.07
2022-10-22T15:21:30.339Z,9.32
2022-10-22T15:24:01.038Z,9.68
2022-10-22T15:26:29.334Z,9.00
2022-10-22T15:28:58.396Z,10.10
2022-10-22T15:31:46.919Z,8.60
2022-10-22T15:34:19.024Z,9.82
2022-10-22T15:36:47.100Z,10.13
2022-10-22T15:39:17.270Z,9.60
2022-10-22T15:41:47.012Z,9.48
2022-10-22T15:44:17.623Z,8.88
2022-10-22T15:46:45.867Z,10.50
2022-10-22T15:49:14.609Z,9.43
2022-10-22T15:51:42.683Z,9.65
2022-10-22T15:54:15.196Z,9.48
2022-10-22T15:56:45.487Z,9.15
2022-10-22T15:59:15.679Z,9.20
2022-10-22T16:01:44.747Z,10.43
2022-10-22T16:04:13.266Z,9.48
2022-10-22T16:06:43.134Z,10.77
2022-10-22T16:09:14.107Z,48.42
2022-10-22T16:11:42.828Z,16.95
2022-10-22T16:14:14.879Z,14.93
2022-10-22T16:16:44.970Z,20.85
2022-10-22T16:19:14.313Z,18.10
2022-10-22T16:21:42.507Z,17.87
2022-10-22T16:24:12.169Z,18.13
2022-10-22T16:26:40.320Z,19.17
2022-10-22T16:29:08.591Z,18.97
2022-10-22T16:31:38.086Z,20.20
2022-10-22T16:34:06.241Z,20.17
2022-10-22T16:36:36.052Z,19.93
2022-10-22T16:39:04.969Z,23.27
2022-10-22T16:41:36.547Z,21.73
2022-10-22T16:44:06.570Z,26.63
2022-10-22T16:46:40.214Z,29.63
2022-10-22T16:49:09.231Z,43.57
2022-10-22T16:51:37.854Z,33.87
2022-10-22T16:54:09.700Z,37.57
2022-10-22T16:56:40.411Z,33.77
2022-10-22T16:59:09.098Z,30.73
2022-10-22T17:01:41.202Z,25.27
2022-10-22T17:04:10.166Z,28.17
2022-10-22T17:06:38.844Z,31.40
2022-10-22T17:09:07.202Z,33.63
2022-10-22T17:11:42.702Z,27.67
2022-10-22T17:14:14.186Z,42.17
2022-10-22T17:16:44.957Z,40.47
2022-10-22T17:19:16.341Z,30.90
2022-10-22T17:21:44.913Z,25.40
2022-10-22T17:24:13.265Z,23.80
2022-10-22T17:26:41.538Z,25.13
2022-10-22T17:29:09.679Z,25.03
2022-10-22T17:31:39.022Z,26.77
2022-10-22T17:34:11.521Z,24.77
2022-10-22T17:36:41.385Z,25.60
2022-10-22T17:39:10.195Z,21.70
2022-10-22T17:42:05.496Z,22.77
2022-10-22T17:47:29.974Z,20.73
2022-10-22T17:54:24.053Z,20.57
2022-10-22T18:03:44.156Z,20.10
2022-10-22T18:07:16.606Z,20.10
2022-10-22T18:09:44.876Z,20.87
2022-10-22T18:12:15.403Z,19.73
2022-10-22T18:14:44.267Z,18.47
2022-10-22T18:19:49.331Z,18.47
2022-10-22T18:22:17.582Z,18.30
2022-10-22T18:24:46.031Z,17.17
2022-10-22T18:27:14.706Z,15.43
2022-10-22T18:29:42.771Z,14.43
2022-10-22T18:32:13.171Z,14.57
2022-10-22T18:34:43.111Z,15.30
2022-10-22T18:37:13.211Z,15.20
2022-10-22T18:39:41.513Z,14.17
2022-10-22T18:42:09.817Z,13.60
2022-10-22T18:44:38.184Z,14.20
2022-10-22T18:47:06.422Z,13.53
2022-10-22T18:49:35.421Z,13.17
2022-10-22T18:52:05.355Z,12.80
2022-10-22T18:54:33.638Z,12.80
2022-10-22T18:57:03.247Z,12.73
2022-10-22T18:59:33.010Z,12.63
2022-10-22T19:02:01.491Z,12.27
2022-10-22T19:04:36.670Z,12.83
2022-10-22T19:09:36.007Z,13.53
2022-10-22T19:12:05.541Z,13.43
2022-10-22T19:14:34.897Z,12.73
2022-10-22T19:17:06.473Z,12.73
2022-10-22T19:19:34.811Z,12.67
2022-10-22T19:22:02.804Z,12.57
2022-10-22T19:24:34.293Z,13.50
2022-10-22T19:27:02.676Z,13.00
2022-10-22T19:29:30.809Z,12.43
2022-10-22T19:31:59.154Z,12.90
2022-10-22T19:34:27.283Z,12.43
2022-10-22T19:36:55.361Z,12.17
2022-10-22T19:39:23.528Z,12.20
2022-10-22T19:41:53.115Z,12.53
2022-10-22T19:44:21.515Z,12.77
2022-10-22T19:46:49.834Z,13.90
2022-10-22T19:49:21.975Z,14.17
2022-10-22T19:51:53.598Z,14.47
2022-10-22T19:54:21.768Z,14.33
2022-10-22T19:56:51.190Z,14.57
2022-10-22T19:59:22.818Z,16.83
2022-10-22T20:01:51.069Z,18.27
2022-10-22T20:04:20.763Z,21.93
2022-10-22T20:06:48.916Z,21.70
2022-10-22T20:09:17.929Z,21.20
2022-10-22T20:11:46.177Z,21.20
2022-10-22T20:14:15.150Z,20.73
2022-10-22T20:16:44.846Z,20.97
2022-10-22T20:19:16.426Z,23.53
2022-10-22T20:21:45.771Z,22.87
2022-10-22T20:24:14.266Z,23.27
2022-10-22T20:26:42.457Z,23.07
2022-10-22T20:29:11.628Z,24.27
2022-10-22T20:31:39.679Z,24.13
2022-10-22T20:34:10.383Z,23.30
2022-10-22T20:36:38.475Z,22.27
2022-10-22T20:39:09.001Z,23.70
2022-10-22T20:41:40.483Z,24.17
2022-10-22T20:44:12.336Z,23.43
2022-10-22T20:46:40.562Z,23.50
2022-10-22T20:49:12.539Z,23.20
2022-10-22T20:51:40.817Z,21.03
2022-10-22T20:54:09.720Z,20.67
2022-10-22T20:56:39.197Z,21.80
2022-10-22T20:59:10.753Z,20.87
2022-10-22T21:01:40.348Z,21.17
2022-10-22T21:04:10.061Z,19.70
2022-10-22T21:06:40.492Z,19.17
2022-10-22T21:09:10.378Z,18.93
2022-10-22T21:11:40.583Z,19.70
2022-10-22T21:14:10.319Z,19.47
2022-10-22T21:16:42.187Z,19.93
2022-10-22T21:19:11.728Z,19.00
2022-10-22T21:21:39.812Z,19.60
2022-10-22T21:24:08.557Z,17.47
2022-10-22T21:26:38.593Z,18.10
2022-10-22T21:29:06.885Z,17.93
2022-10-22T21:31:36.533Z,18.80
2022-10-22T21:34:05.028Z,18.73
2022-10-22T21:36:34.579Z,20.60
2022-10-22T21:39:03.292Z,22.97
2022-10-22T21:41:31.363Z,22.37
2022-10-22T21:43:59.967Z,28.43
2022-10-22T21:46:31.731Z,32.10
2022-10-22T21:49:02.112Z,27.50
2022-10-22T21:51:49.843Z,26.37
2022-10-22T21:54:19.371Z,29.30
2022-10-22T21:56:49.081Z,36.17
2022-10-22T21:59:17.122Z,33.53
2022-10-22T22:01:45.264Z,30.50
2022-10-22T22:04:14.652Z,33.67
2022-10-22T22:06:42.833Z,34.37
2022-10-22T22:09:10.884Z,34.10
2022-10-22T22:11:40.371Z,36.13
2022-10-22T22:14:08.425Z,39.07
2022-10-22T22:16:36.566Z,38.07
2022-10-22T22:19:07.460Z,34.70
2022-10-22T22:21:39.222Z,37.73
2022-10-22T22:24:08.906Z,35.27
2022-10-22T22:26:37.729Z,32.10
2022-10-22T22:29:07.300Z,33.63
2022-10-22T22:31:37.494Z,34.93
2022-10-22T22:34:11.287Z,31.80
2022-10-22T22:36:42.118Z,37.17
2022-10-22T22:39:12.943Z,40.53
2022-10-22T22:41:41.235Z,41.30
2022-10-22T22:44:10.791Z,41.57
2022-10-22T22:46:38.931Z,38.67
2022-10-22T22:49:07.162Z,39.17
2022-10-22T22:51:35.707Z,38.53
2022-10-22T22:54:03.879Z,34.03
2022-10-22T22:56:34.545Z,30.93
2022-10-22T22:59:03.382Z,30.27
2022-10-22T23:01:34.648Z,28.43
2022-10-22T23:04:04.217Z,29.43
2022-10-22T23:06:34.831Z,27.63
2022-10-22T23:09:03.961Z,28.73
2022-10-22T23:11:32.095Z,28.37
2022-10-22T23:14:02.039Z,29.10
2022-10-22T23:16:33.335Z,27.27
2022-10-22T23:19:01.833Z,26.13
2022-10-22T23:21:31.917Z,26.90
2022-10-22T23:24:01.874Z,23.47
2022-10-22T23:26:32.655Z,23.47
2022-10-22T23:29:02.624Z,23.63
2022-10-22T23:31:32.269Z,23.77
2022-10-22T23:34:01.281Z,22.57
2022-10-22T23:36:30.106Z,23.80
2022-10-22T23:38:58.245Z,24.30
2022-10-22T23:41:26.274Z,22.67
2022-10-22T23:43:54.391Z,22.10
2022-10-22T23:46:22.360Z,22.40
2022-10-22T23:48:53.786Z,21.83
2022-10-22T23:51:22.386Z,22.37
2022-10-22T23:53:55.991Z,23.13
2022-10-22T23:56:24.322Z,21.87
2022-10-22T23:58:53.470Z,21.93
